sensor_id;sensor_type;location;lat;lon;timestamp;temperature;humidity
1103;DHT22;538;42.654;23.376;2023-03-01T00:00:43;8.20;55.00
1103;DHT22;538;42.654;23.376;2023-03-01T00:03:02;8.30;54.90
1103;DHT22;538;42.654;23.376;2023-03-01T00:05:56;8.30;55.60
1103;DHT22;538;42.654;23.376;2023-03-01T00:08:34;8.20;56.10
1103;DHT22;538;42.654;23.376;2023-03-01T00:14:06;8.10;56.70
1103;DHT22;538;42.654;23.376;2023-03-01T00:16:48;8.10;56.60
1103;DHT22;538;42.654;23.376;2023-03-01T00:19:18;7.90;57.00
1103;DHT22;538;42.654;23.376;2023-03-01T00:21:53;7.90;57.60
1103;DHT22;538;42.654;23.376;2023-03-01T00:24:26;7.70;58.50
1103;DHT22;538;42.654;23.376;2023-03-01T00:26:54;8.00;59.80
1103;DHT22;538;42.654;23.376;2023-03-01T00:29:28;7.70;61.00
1103;DHT22;538;42.654;23.376;2023-03-01T00:32:02;7.70;60.80
1103;DHT22;538;42.654;23.376;2023-03-01T00:34:35;7.70;61.80
1103;DHT22;538;42.654;23.376;2023-03-01T00:37:12;7.80;61.30
1103;DHT22;538;42.654;23.376;2023-03-01T00:39:40;7.70;61.80
1103;DHT22;538;42.654;23.376;2023-03-01T00:42:18;7.70;61.90
1103;DHT22;538;42.654;23.376;2023-03-01T00:44:59;7.70;61.60
1103;DHT22;538;42.654;23.376;2023-03-01T00:47:38;7.70;62.10
1103;DHT22;538;42.654;23.376;2023-03-01T00:50:07;7.70;61.90
1103;DHT22;538;42.654;23.376;2023-03-01T00:52:41;7.70;61.80
1103;DHT22;538;42.654;23.376;2023-03-01T00:55:14;7.70;61.80
1103;DHT22;538;42.654;23.376;2023-03-01T00:57:46;7.90;61.70
1103;DHT22;538;42.654;23.376;2023-03-01T01:00:14;7.90;61.80
1103;DHT22;538;42.654;23.376;2023-03-01T01:02:59;7.80;61.40
1103;DHT22;538;42.654;23.376;2023-03-01T01:05:26;7.80;61.00
1103;DHT22;538;42.654;23.376;2023-03-01T01:08:01;7.70;60.90
1103;DHT22;538;42.654;23.376;2023-03-01T01:10:28;7.70;61.10
1103;DHT22;538;42.654;23.376;2023-03-01T01:13:03;7.80;60.70
1103;DHT22;538;42.654;23.376;2023-03-01T01:15:37;7.70;60.30
1103;DHT22;538;42.654;23.376;2023-03-01T01:18:16;7.70;60.40
1103;DHT22;538;42.654;23.376;2023-03-01T01:20:49;7.90;60.20
1103;DHT22;538;42.654;23.376;2023-03-01T01:23:31;7.80;59.80
1103;DHT22;538;42.654;23.376;2023-03-01T01:26:06;7.80;60.10
1103;DHT22;538;42.654;23.376;2023-03-01T01:28:49;7.70;59.70
1103;DHT22;538;42.654;23.376;2023-03-01T01:31:22;7.70;59.10
1103;DHT22;538;42.654;23.376;2023-03-01T01:33:55;7.70;58.70
1103;DHT22;538;42.654;23.376;2023-03-01T01:36:26;7.60;58.40
1103;DHT22;538;42.654;23.376;2023-03-01T01:38:56;7.60;58.20
1103;DHT22;538;42.654;23.376;2023-03-01T01:41:27;7.60;58.20
1103;DHT22;538;42.654;23.376;2023-03-01T01:44:21;7.50;58.20
1103;DHT22;538;42.654;23.376;2023-03-01T01:47:03;7.30;58.70
1103;DHT22;538;42.654;23.376;2023-03-01T01:49:44;7.50;59.30
1103;DHT22;538;42.654;23.376;2023-03-01T01:52:16;7.50;59.20
1103;DHT22;538;42.654;23.376;2023-03-01T01:55:02;7.60;59.20
1103;DHT22;538;42.654;23.376;2023-03-01T01:57:39;7.60;58.00
1103;DHT22;538;42.654;23.376;2023-03-01T02:00:15;7.60;57.50
1103;DHT22;538;42.654;23.376;2023-03-01T02:02:56;7.70;56.90
1103;DHT22;538;42.654;23.376;2023-03-01T02:05:35;7.70;55.90
1103;DHT22;538;42.654;23.376;2023-03-01T02:08:07;7.70;56.10
1103;DHT22;538;42.654;23.376;2023-03-01T02:10:39;7.80;55.90
1103;DHT22;538;42.654;23.376;2023-03-01T02:13:10;7.60;55.40
1103;DHT22;538;42.654;23.376;2023-03-01T02:15:54;7.70;54.50
1103;DHT22;538;42.654;23.376;2023-03-01T02:18:28;7.70;55.00
1103;DHT22;538;42.654;23.376;2023-03-01T02:21:13;7.60;53.10
1103;DHT22;538;42.654;23.376;2023-03-01T02:23:43;7.50;53.10
1103;DHT22;538;42.654;23.376;2023-03-01T02:26:18;4.40;51.10
1103;DHT22;538;42.654;23.376;2023-03-01T02:28:52;7.50;54.00
1103;DHT22;538;42.654;23.376;2023-03-01T02:31:26;7.60;54.30
1103;DHT22;538;42.654;23.376;2023-03-01T02:34:20;7.70;53.80
1103;DHT22;538;42.654;23.376;2023-03-01T02:37:07;7.70;53.30
1103;DHT22;538;42.654;23.376;2023-03-01T02:39:51;7.60;53.10
1103;DHT22;538;42.654;23.376;2023-03-01T02:42:26;7.80;53.80
1103;DHT22;538;42.654;23.376;2023-03-01T02:45:06;7.70;52.10
1103;DHT22;538;42.654;23.376;2023-03-01T02:47:36;7.80;52.00
1103;DHT22;538;42.654;23.376;2023-03-01T02:50:33;7.60;52.90
1103;DHT22;538;42.654;23.376;2023-03-01T02:53:13;7.90;53.80
1103;DHT22;538;42.654;23.376;2023-03-01T02:55:47;7.60;54.10
1103;DHT22;538;42.654;23.376;2023-03-01T02:58:28;7.80;54.50
1103;DHT22;538;42.654;23.376;2023-03-01T03:00:59;7.80;54.70
1103;DHT22;538;42.654;23.376;2023-03-01T03:03:32;7.50;54.30
1103;DHT22;538;42.654;23.376;2023-03-01T03:06:06;7.60;54.80
1103;DHT22;538;42.654;23.376;2023-03-01T03:08:39;7.60;55.30
1103;DHT22;538;42.654;23.376;2023-03-01T03:11:16;7.50;54.80
1103;DHT22;538;42.654;23.376;2023-03-01T03:13:46;7.50;55.10
1103;DHT22;538;42.654;23.376;2023-03-01T03:16:17;7.50;55.40
1103;DHT22;538;42.654;23.376;2023-03-01T03:18:50;7.50;55.40
1103;DHT22;538;42.654;23.376;2023-03-01T03:21:19;7.40;55.60
1103;DHT22;538;42.654;23.376;2023-03-01T03:23:47;7.40;55.70
1103;DHT22;538;42.654;23.376;2023-03-01T03:26:33;7.40;56.10
1103;DHT22;538;42.654;23.376;2023-03-01T03:29:01;7.40;56.40
1103;DHT22;538;42.654;23.376;2023-03-01T03:31:33;7.40;57.10
1103;DHT22;538;42.654;23.376;2023-03-01T03:34:11;7.50;56.50
1103;DHT22;538;42.654;23.376;2023-03-01T03:37:01;7.40;56.90
1103;DHT22;538;42.654;23.376;2023-03-01T03:39:52;7.40;56.00
1103;DHT22;538;42.654;23.376;2023-03-01T03:42:21;7.40;55.80
1103;DHT22;538;42.654;23.376;2023-03-01T03:44:51;7.30;55.80
1103;DHT22;538;42.654;23.376;2023-03-01T03:47:25;7.30;55.60
1103;DHT22;538;42.654;23.376;2023-03-01T03:50:03;7.60;55.50
1103;DHT22;538;42.654;23.376;2023-03-01T03:52:49;7.60;55.50
1103;DHT22;538;42.654;23.376;2023-03-01T03:55:17;7.50;55.70
1103;DHT22;538;42.654;23.376;2023-03-01T03:57:51;7.50;55.20
1103;DHT22;538;42.654;23.376;2023-03-01T04:00:32;7.60;54.60
1103;DHT22;538;42.654;23.376;2023-03-01T04:03:15;7.40;54.20
1103;DHT22;538;42.654;23.376;2023-03-01T04:05:53;7.40;54.50
1103;DHT22;538;42.654;23.376;2023-03-01T04:08:32;7.40;54.20
1103;DHT22;538;42.654;23.376;2023-03-01T04:11:03;7.40;54.50
1103;DHT22;538;42.654;23.376;2023-03-01T04:13:48;7.50;54.40
1103;DHT22;538;42.654;23.376;2023-03-01T04:16:17;7.50;54.30
1103;DHT22;538;42.654;23.376;2023-03-01T04:18:50;7.40;54.10
1103;DHT22;538;42.654;23.376;2023-03-01T04:21:23;7.40;54.10
1103;DHT22;538;42.654;23.376;2023-03-01T04:24:25;7.60;53.80
1103;DHT22;538;42.654;23.376;2023-03-01T04:27:04;7.50;53.50
1103;DHT22;538;42.654;23.376;2023-03-01T04:29:41;7.60;53.40
1103;DHT22;538;42.654;23.376;2023-03-01T04:32:13;7.70;53.20
1103;DHT22;538;42.654;23.376;2023-03-01T04:34:47;7.70;52.60
1103;DHT22;538;42.654;23.376;2023-03-01T04:37:20;7.60;52.40
1103;DHT22;538;42.654;23.376;2023-03-01T04:39:58;7.50;52.90
1103;DHT22;538;42.654;23.376;2023-03-01T04:42:45;7.50;53.00
1103;DHT22;538;42.654;23.376;2023-03-01T04:45:48;7.50;53.00
1103;DHT22;538;42.654;23.376;2023-03-01T04:48:18;7.50;53.00
1103;DHT22;538;42.654;23.376;2023-03-01T04:50:48;7.40;53.00
1103;DHT22;538;42.654;23.376;2023-03-01T04:53:27;7.30;53.00
1103;DHT22;538;42.654;23.376;2023-03-01T04:56:21;7.30;53.50
1103;DHT22;538;42.654;23.376;2023-03-01T04:58:52;7.30;53.80
1103;DHT22;538;42.654;23.376;2023-03-01T05:01:28;7.50;54.40
1103;DHT22;538;42.654;23.376;2023-03-01T05:03:57;7.40;54.90
1103;DHT22;538;42.654;23.376;2023-03-01T05:06:37;7.40;54.40
1103;DHT22;538;42.654;23.376;2023-03-01T05:09:21;7.40;55.40
1103;DHT22;538;42.654;23.376;2023-03-01T05:11:49;7.40;55.00
1103;DHT22;538;42.654;23.376;2023-03-01T05:14:22;7.60;54.90
1103;DHT22;538;42.654;23.376;2023-03-01T05:17:00;7.30;54.60
1103;DHT22;538;42.654;23.376;2023-03-01T05:19:47;7.60;54.40
1103;DHT22;538;42.654;23.376;2023-03-01T05:22:27;7.60;54.30
1103;DHT22;538;42.654;23.376;2023-03-01T05:24:59;7.50;54.30
1103;DHT22;538;42.654;23.376;2023-03-01T05:27:30;7.70;54.40
1103;DHT22;538;42.654;23.376;2023-03-01T05:30:12;7.70;54.40
1103;DHT22;538;42.654;23.376;2023-03-01T05:32:48;7.80;53.40
1103;DHT22;538;42.654;23.376;2023-03-01T05:35:32;7.80;53.30
1103;DHT22;538;42.654;23.376;2023-03-01T05:38:05;7.50;52.40
1103;DHT22;538;42.654;23.376;2023-03-01T05:40:41;7.60;52.60
1103;DHT22;538;42.654;23.376;2023-03-01T05:43:13;7.50;52.70
1103;DHT22;538;42.654;23.376;2023-03-01T05:45:42;7.50;52.90
1103;DHT22;538;42.654;23.376;2023-03-01T05:48:16;7.60;52.60
1103;DHT22;538;42.654;23.376;2023-03-01T05:50:51;7.70;52.80
1103;DHT22;538;42.654;23.376;2023-03-01T05:53:21;7.50;52.40
1103;DHT22;538;42.654;23.376;2023-03-01T05:55:56;7.70;52.00
1103;DHT22;538;42.654;23.376;2023-03-01T05:58:24;6.90;51.80
1103;DHT22;538;42.654;23.376;2023-03-01T06:00:54;7.80;52.30
1103;DHT22;538;42.654;23.376;2023-03-01T06:03:24;7.60;52.60
1103;DHT22;538;42.654;23.376;2023-03-01T06:06:12;7.80;51.80
1103;DHT22;538;42.654;23.376;2023-03-01T06:08:45;7.60;51.60
1103;DHT22;538;42.654;23.376;2023-03-01T06:11:18;7.70;50.90
1103;DHT22;538;42.654;23.376;2023-03-01T06:13:47;7.70;51.20
1103;DHT22;538;42.654;23.376;2023-03-01T06:16:20;7.70;51.40
1103;DHT22;538;42.654;23.376;2023-03-01T06:19:06;7.70;50.90
1103;DHT22;538;42.654;23.376;2023-03-01T06:21:46;7.80;51.30
1103;DHT22;538;42.654;23.376;2023-03-01T06:24:21;7.70;51.00
1103;DHT22;538;42.654;23.376;2023-03-01T06:26:59;7.80;51.50
1103;DHT22;538;42.654;23.376;2023-03-01T06:29:29;7.90;51.20
1103;DHT22;538;42.654;23.376;2023-03-01T06:32:16;7.90;51.20
1103;DHT22;538;42.654;23.376;2023-03-01T06:34:44;7.90;51.00
1103;DHT22;538;42.654;23.376;2023-03-01T06:37:14;7.90;51.40
1103;DHT22;538;42.654;23.376;2023-03-01T06:40:10;8.10;50.10
1103;DHT22;538;42.654;23.376;2023-03-01T06:42:54;8.10;48.50
1103;DHT22;538;42.654;23.376;2023-03-01T06:45:25;8.10;49.00
1103;DHT22;538;42.654;23.376;2023-03-01T06:48:02;8.00;49.90
1103;DHT22;538;42.654;23.376;2023-03-01T06:50:33;8.00;49.70
1103;DHT22;538;42.654;23.376;2023-03-01T06:53:01;8.20;50.10
1103;DHT22;538;42.654;23.376;2023-03-01T06:55:34;8.00;50.00
1103;DHT22;538;42.654;23.376;2023-03-01T06:58:08;8.10;50.20
1103;DHT22;538;42.654;23.376;2023-03-01T07:00:36;8.10;49.80
1103;DHT22;538;42.654;23.376;2023-03-01T07:03:17;8.20;48.30
1103;DHT22;538;42.654;23.376;2023-03-01T07:05:48;8.20;46.70
1103;DHT22;538;42.654;23.376;2023-03-01T07:08:22;8.20;46.10
1103;DHT22;538;42.654;23.376;2023-03-01T07:11:01;8.40;45.20
1103;DHT22;538;42.654;23.376;2023-03-01T07:13:35;8.40;45.70
1103;DHT22;538;42.654;23.376;2023-03-01T07:16:09;8.50;45.00
1103;DHT22;538;42.654;23.376;2023-03-01T07:18:38;8.50;42.90
1103;DHT22;538;42.654;23.376;2023-03-01T07:21:07;8.60;42.00
1103;DHT22;538;42.654;23.376;2023-03-01T07:23:40;8.70;42.40
1103;DHT22;538;42.654;23.376;2023-03-01T07:26:14;8.60;42.90
1103;DHT22;538;42.654;23.376;2023-03-01T07:28:42;8.80;43.40
1103;DHT22;538;42.654;23.376;2023-03-01T07:31:10;8.70;43.20
1103;DHT22;538;42.654;23.376;2023-03-01T07:33:45;8.80;42.60
1103;DHT22;538;42.654;23.376;2023-03-01T07:36:25;8.90;43.00
1103;DHT22;538;42.654;23.376;2023-03-01T07:38:58;9.00;41.40
1103;DHT22;538;42.654;23.376;2023-03-01T07:41:36;9.00;40.90
1103;DHT22;538;42.654;23.376;2023-03-01T07:44:05;9.20;39.30
1103;DHT22;538;42.654;23.376;2023-03-01T07:46:35;9.30;38.00
1103;DHT22;538;42.654;23.376;2023-03-01T07:49:16;9.20;37.30
1103;DHT22;538;42.654;23.376;2023-03-01T07:51:47;9.20;35.50
1103;DHT22;538;42.654;23.376;2023-03-01T07:54:18;9.30;34.70
1103;DHT22;538;42.654;23.376;2023-03-01T07:56:49;9.10;34.10
1103;DHT22;538;42.654;23.376;2023-03-01T07:59:34;9.20;35.10
1103;DHT22;538;42.654;23.376;2023-03-01T08:02:48;9.20;35.70
1103;DHT22;538;42.654;23.376;2023-03-01T08:05:07;9.20;35.20
1103;DHT22;538;42.654;23.376;2023-03-01T08:07:41;9.30;34.80
1103;DHT22;538;42.654;23.376;2023-03-01T08:10:25;9.30;34.00
1103;DHT22;538;42.654;23.376;2023-03-01T08:13:02;9.30;34.70
1103;DHT22;538;42.654;23.376;2023-03-01T08:16:05;9.30;33.20
1103;DHT22;538;42.654;23.376;2023-03-01T08:18:54;11.50;34.30
1103;DHT22;538;42.654;23.376;2023-03-01T08:21:25;9.10;34.00
1103;DHT22;538;42.654;23.376;2023-03-01T08:24:08;9.20;34.30
1103;DHT22;538;42.654;23.376;2023-03-01T08:26:49;9.20;34.50
1103;DHT22;538;42.654;23.376;2023-03-01T08:29:18;9.00;34.30
1103;DHT22;538;42.654;23.376;2023-03-01T08:31:47;9.10;33.10
1103;DHT22;538;42.654;23.376;2023-03-01T08:34:21;9.10;32.80
1103;DHT22;538;42.654;23.376;2023-03-01T08:36:58;9.00;33.10
1103;DHT22;538;42.654;23.376;2023-03-01T08:39:45;9.10;33.50
1103;DHT22;538;42.654;23.376;2023-03-01T08:42:24;9.00;32.30
1103;DHT22;538;42.654;23.376;2023-03-01T08:45:04;9.10;32.20
1103;DHT22;538;42.654;23.376;2023-03-01T08:47:42;9.00;32.40
1103;DHT22;538;42.654;23.376;2023-03-01T08:50:23;9.30;32.70
1103;DHT22;538;42.654;23.376;2023-03-01T08:52:58;9.50;32.80
1103;DHT22;538;42.654;23.376;2023-03-01T08:55:44;9.40;31.10
1103;DHT22;538;42.654;23.376;2023-03-01T08:58:17;9.40;29.10
1103;DHT22;538;42.654;23.376;2023-03-01T09:00:57;9.60;28.70
1103;DHT22;538;42.654;23.376;2023-03-01T09:03:29;9.60;28.70
1103;DHT22;538;42.654;23.376;2023-03-01T09:06:05;9.60;28.40
1103;DHT22;538;42.654;23.376;2023-03-01T09:08:37;9.70;28.90
1103;DHT22;538;42.654;23.376;2023-03-01T09:11:10;9.80;28.40
1103;DHT22;538;42.654;23.376;2023-03-01T09:13:42;9.90;28.10
1103;DHT22;538;42.654;23.376;2023-03-01T09:16:13;9.90;27.50
1103;DHT22;538;42.654;23.376;2023-03-01T09:18:56;9.80;27.60
1103;DHT22;538;42.654;23.376;2023-03-01T09:21:43;9.90;27.40
1103;DHT22;538;42.654;23.376;2023-03-01T09:24:24;9.90;27.60
1103;DHT22;538;42.654;23.376;2023-03-01T09:27:11;9.90;28.20
1103;DHT22;538;42.654;23.376;2023-03-01T09:29:48;10.20;26.30
1103;DHT22;538;42.654;23.376;2023-03-01T09:32:17;10.30;25.50
1103;DHT22;538;42.654;23.376;2023-03-01T09:34:49;10.20;25.20
1103;DHT22;538;42.654;23.376;2023-03-01T09:37:41;10.20;25.60
1103;DHT22;538;42.654;23.376;2023-03-01T09:40:15;10.30;26.10
1103;DHT22;538;42.654;23.376;2023-03-01T09:42:59;10.30;25.30
1103;DHT22;538;42.654;23.376;2023-03-01T09:45:40;10.30;25.30
1103;DHT22;538;42.654;23.376;2023-03-01T09:48:23;10.50;25.30
1103;DHT22;538;42.654;23.376;2023-03-01T09:50:52;10.40;25.20
1103;DHT22;538;42.654;23.376;2023-03-01T09:53:31;10.40;24.80
1103;DHT22;538;42.654;23.376;2023-03-01T09:56:05;10.50;25.00
1103;DHT22;538;42.654;23.376;2023-03-01T09:58:53;10.60;25.30
1103;DHT22;538;42.654;23.376;2023-03-01T10:04:32;10.70;24.90
1103;DHT22;538;42.654;23.376;2023-03-01T10:07:26;10.70;24.20
1103;DHT22;538;42.654;23.376;2023-03-01T10:10:03;10.70;23.80
1103;DHT22;538;42.654;23.376;2023-03-01T10:12:49;10.70;23.50
1103;DHT22;538;42.654;23.376;2023-03-01T10:15:37;10.60;23.90
1103;DHT22;538;42.654;23.376;2023-03-01T10:18:23;10.80;24.20
1103;DHT22;538;42.654;23.376;2023-03-01T10:20:57;10.90;23.20
1103;DHT22;538;42.654;23.376;2023-03-01T10:23:25;10.80;23.30
1103;DHT22;538;42.654;23.376;2023-03-01T10:26:04;10.80;23.40
1103;DHT22;538;42.654;23.376;2023-03-01T10:28:44;10.60;24.00
1103;DHT22;538;42.654;23.376;2023-03-01T10:31:15;10.70;24.00
1103;DHT22;538;42.654;23.376;2023-03-01T10:33:44;10.80;23.70
1103;DHT22;538;42.654;23.376;2023-03-01T10:36:15;10.80;23.90
1103;DHT22;538;42.654;23.376;2023-03-01T10:38:50;10.80;23.50
1103;DHT22;538;42.654;23.376;2023-03-01T10:41:20;10.90;24.00
1103;DHT22;538;42.654;23.376;2023-03-01T10:43:50;10.90;23.10
1103;DHT22;538;42.654;23.376;2023-03-01T10:46:24;10.80;22.90
1103;DHT22;538;42.654;23.376;2023-03-01T10:49:16;11.00;22.40
1103;DHT22;538;42.654;23.376;2023-03-01T10:51:46;11.00;22.90
1103;DHT22;538;42.654;23.376;2023-03-01T10:54:18;11.20;22.60
1103;DHT22;538;42.654;23.376;2023-03-01T10:56:47;11.40;22.90
1103;DHT22;538;42.654;23.376;2023-03-01T10:59:24;11.70;22.00
1103;DHT22;538;42.654;23.376;2023-03-01T11:02:15;11.70;21.80
1103;DHT22;538;42.654;23.376;2023-03-01T11:04:57;12.30;20.00
1103;DHT22;538;42.654;23.376;2023-03-01T11:07:25;12.40;20.40
1103;DHT22;538;42.654;23.376;2023-03-01T11:09:53;12.70;18.40
1103;DHT22;538;42.654;23.376;2023-03-01T11:12:21;13.00;17.60
1103;DHT22;538;42.654;23.376;2023-03-01T11:14:49;13.20;16.40
1103;DHT22;538;42.654;23.376;2023-03-01T11:17:21;13.10;15.30
1103;DHT22;538;42.654;23.376;2023-03-01T11:20:03;13.20;15.80
1103;DHT22;538;42.654;23.376;2023-03-01T11:22:34;13.00;14.70
1103;DHT22;538;42.654;23.376;2023-03-01T11:25:03;13.00;15.30
1103;DHT22;538;42.654;23.376;2023-03-01T11:27:32;13.00;15.60
1103;DHT22;538;42.654;23.376;2023-03-01T11:30:03;13.00;15.60
1103;DHT22;538;42.654;23.376;2023-03-01T11:32:35;12.80;15.60
1103;DHT22;538;42.654;23.376;2023-03-01T11:35:10;12.60;15.90
1103;DHT22;538;42.654;23.376;2023-03-01T11:37:47;12.70;15.90
1103;DHT22;538;42.654;23.376;2023-03-01T11:40:23;12.60;16.30
1103;DHT22;538;42.654;23.376;2023-03-01T11:42:59;12.70;16.40
1103;DHT22;538;42.654;23.376;2023-03-01T11:45:37;12.70;16.20
1103;DHT22;538;42.654;23.376;2023-03-01T11:48:28;12.50;15.80
1103;DHT22;538;42.654;23.376;2023-03-01T11:51:03;12.30;16.30
1103;DHT22;538;42.654;23.376;2023-03-01T11:53:44;12.30;16.60
1103;DHT22;538;42.654;23.376;2023-03-01T11:56:21;12.00;16.90
1103;DHT22;538;42.654;23.376;2023-03-01T11:59:03;12.00;17.40
1103;DHT22;538;42.654;23.376;2023-03-01T12:01:44;11.80;17.70
1103;DHT22;538;42.654;23.376;2023-03-01T12:04:31;11.80;18.10
1103;DHT22;538;42.654;23.376;2023-03-01T12:07:04;11.80;18.50
1103;DHT22;538;42.654;23.376;2023-03-01T12:09:51;11.90;18.70
1103;DHT22;538;42.654;23.376;2023-03-01T12:12:32;12.00;18.60
1103;DHT22;538;42.654;23.376;2023-03-01T12:18:30;12.90;17.20
1103;DHT22;538;42.654;23.376;2023-03-01T12:21:10;13.50;15.60
1103;DHT22;538;42.654;23.376;2023-03-01T12:24:10;13.60;16.00
1103;DHT22;538;42.654;23.376;2023-03-01T12:26:51;14.00;13.90
1103;DHT22;538;42.654;23.376;2023-03-01T12:29:28;14.00;13.20
1103;DHT22;538;42.654;23.376;2023-03-01T12:32:17;13.90;12.90
1103;DHT22;538;42.654;23.376;2023-03-01T12:37:48;14.00;13.50
1103;DHT22;538;42.654;23.376;2023-03-01T12:40:33;13.90;13.40
1103;DHT22;538;42.654;23.376;2023-03-01T12:43:15;13.80;13.30
1103;DHT22;538;42.654;23.376;2023-03-01T12:46:03;13.80;13.40
1103;DHT22;538;42.654;23.376;2023-03-01T12:48:40;13.60;13.30
1103;DHT22;538;42.654;23.376;2023-03-01T12:51:13;13.40;13.70
1103;DHT22;538;42.654;23.376;2023-03-01T12:53:42;13.30;14.10
1103;DHT22;538;42.654;23.376;2023-03-01T12:56:13;13.20;14.30
1103;DHT22;538;42.654;23.376;2023-03-01T12:58:51;13.10;14.80
1103;DHT22;538;42.654;23.376;2023-03-01T13:01:25;13.20;14.80
1103;DHT22;538;42.654;23.376;2023-03-01T13:06:57;13.10;14.20
1103;DHT22;538;42.654;23.376;2023-03-01T13:09:30;13.10;14.80
1103;DHT22;538;42.654;23.376;2023-03-01T13:11:59;13.20;15.20
1103;DHT22;538;42.654;23.376;2023-03-01T13:14:52;13.20;14.90
1103;DHT22;538;42.654;23.376;2023-03-01T13:17:32;13.20;14.70
1103;DHT22;538;42.654;23.376;2023-03-01T13:19:59;13.00;14.60
1103;DHT22;538;42.654;23.376;2023-03-01T13:22:29;12.80;15.10
1103;DHT22;538;42.654;23.376;2023-03-01T13:25:18;12.70;15.40
1103;DHT22;538;42.654;23.376;2023-03-01T13:27:46;12.70;15.60
1103;DHT22;538;42.654;23.376;2023-03-01T13:30:41;12.80;15.00
1103;DHT22;538;42.654;23.376;2023-03-01T13:33:42;12.80;15.40
1103;DHT22;538;42.654;23.376;2023-03-01T13:36:11;12.80;14.80
1103;DHT22;538;42.654;23.376;2023-03-01T13:38:46;12.70;15.20
1103;DHT22;538;42.654;23.376;2023-03-01T13:41:14;12.70;15.40
1103;DHT22;538;42.654;23.376;2023-03-01T13:43:43;12.60;14.60
1103;DHT22;538;42.654;23.376;2023-03-01T13:46:17;12.60;15.10
1103;DHT22;538;42.654;23.376;2023-03-01T13:48:48;12.60;15.10
1103;DHT22;538;42.654;23.376;2023-03-01T13:51:21;12.80;15.00
1103;DHT22;538;42.654;23.376;2023-03-01T13:53:49;12.80;15.50
1103;DHT22;538;42.654;23.376;2023-03-01T13:56:19;12.90;15.50
1103;DHT22;538;42.654;23.376;2023-03-01T13:58:49;12.90;15.60
1103;DHT22;538;42.654;23.376;2023-03-01T14:01:25;12.90;15.50
1103;DHT22;538;42.654;23.376;2023-03-01T14:03:53;12.80;15.20
1103;DHT22;538;42.654;23.376;2023-03-01T14:06:22;12.60;15.10
1103;DHT22;538;42.654;23.376;2023-03-01T14:08:52;12.70;15.60
1103;DHT22;538;42.654;23.376;2023-03-01T14:14:40;12.60;16.40
1103;DHT22;538;42.654;23.376;2023-03-01T14:17:24;12.60;16.50
1103;DHT22;538;42.654;23.376;2023-03-01T14:19:57;12.60;16.70
1103;DHT22;538;42.654;23.376;2023-03-01T14:22:26;12.50;16.50
1103;DHT22;538;42.654;23.376;2023-03-01T14:24:57;12.30;16.40
1103;DHT22;538;42.654;23.376;2023-03-01T14:27:28;12.00;17.10
1103;DHT22;538;42.654;23.376;2023-03-01T14:29:59;11.70;17.50
1103;DHT22;538;42.654;23.376;2023-03-01T14:32:29;11.30;18.50
1103;DHT22;538;42.654;23.376;2023-03-01T14:34:58;11.20;18.90
1103;DHT22;538;42.654;23.376;2023-03-01T14:37:28;11.30;19.70
1103;DHT22;538;42.654;23.376;2023-03-01T14:39:56;11.20;20.10
1103;DHT22;538;42.654;23.376;2023-03-01T14:42:25;11.20;20.80
1103;DHT22;538;42.654;23.376;2023-03-01T14:44:55;11.10;21.10
1103;DHT22;538;42.654;23.376;2023-03-01T14:47:28;11.20;21.70
1103;DHT22;538;42.654;23.376;2023-03-01T14:49:59;11.00;22.00
1103;DHT22;538;42.654;23.376;2023-03-01T14:52:33;11.00;22.50
1103;DHT22;538;42.654;23.376;2023-03-01T14:55:04;10.80;22.90
1103;DHT22;538;42.654;23.376;2023-03-01T14:57:32;10.90;23.40
1103;DHT22;538;42.654;23.376;2023-03-01T15:00:00;10.60;23.50
1103;DHT22;538;42.654;23.376;2023-03-01T15:02:33;10.70;24.20
1103;DHT22;538;42.654;23.376;2023-03-01T15:05:03;10.60;24.60
1103;DHT22;538;42.654;23.376;2023-03-01T15:07:33;10.50;25.00
1103;DHT22;538;42.654;23.376;2023-03-01T15:10:02;10.50;25.30
1103;DHT22;538;42.654;23.376;2023-03-01T15:12:38;10.30;25.00
1103;DHT22;538;42.654;23.376;2023-03-01T15:15:31;10.40;24.90
1103;DHT22;538;42.654;23.376;2023-03-01T15:18:01;10.30;25.20
1103;DHT22;538;42.654;23.376;2023-03-01T15:20:30;10.10;25.10
1103;DHT22;538;42.654;23.376;2023-03-01T15:23:01;10.00;26.30
1103;DHT22;538;42.654;23.376;2023-03-01T15:25:30;9.90;27.40
1103;DHT22;538;42.654;23.376;2023-03-01T15:27:59;9.70;27.10
1103;DHT22;538;42.654;23.376;2023-03-01T15:30:29;9.50;27.90
1103;DHT22;538;42.654;23.376;2023-03-01T15:33:20;9.50;28.90
1103;DHT22;538;42.654;23.376;2023-03-01T15:35:54;9.30;29.40
1103;DHT22;538;42.654;23.376;2023-03-01T15:38:34;9.10;31.50
1103;DHT22;538;42.654;23.376;2023-03-01T15:41:06;9.10;32.30
1103;DHT22;538;42.654;23.376;2023-03-01T15:43:47;8.90;33.90
1103;DHT22;538;42.654;23.376;2023-03-01T15:46:28;9.00;34.90
1103;DHT22;538;42.654;23.376;2023-03-01T15:49:00;8.90;35.30
1103;DHT22;538;42.654;23.376;2023-03-01T15:51:30;8.70;35.40
1103;DHT22;538;42.654;23.376;2023-03-01T15:54:02;9.00;36.10
1103;DHT22;538;42.654;23.376;2023-03-01T15:56:30;8.70;36.20
1103;DHT22;538;42.654;23.376;2023-03-01T15:58:59;8.80;36.30
1103;DHT22;538;42.654;23.376;2023-03-01T16:01:26;8.70;36.70
1103;DHT22;538;42.654;23.376;2023-03-01T16:03:53;8.70;36.90
1103;DHT22;538;42.654;23.376;2023-03-01T16:06:23;8.60;37.40
1103;DHT22;538;42.654;23.376;2023-03-01T16:08:50;8.50;38.10
1103;DHT22;538;42.654;23.376;2023-03-01T16:11:19;8.40;39.10
1103;DHT22;538;42.654;23.376;2023-03-01T16:13:47;8.30;40.40
1103;DHT22;538;42.654;23.376;2023-03-01T16:16:15;8.30;41.00
1103;DHT22;538;42.654;23.376;2023-03-01T16:18:43;8.20;42.10
1103;DHT22;538;42.654;23.376;2023-03-01T16:21:16;8.10;43.50
1103;DHT22;538;42.654;23.376;2023-03-01T16:23:47;7.90;44.70
1103;DHT22;538;42.654;23.376;2023-03-01T16:26:17;7.90;45.20
1103;DHT22;538;42.654;23.376;2023-03-01T16:28:45;8.00;46.50
1103;DHT22;538;42.654;23.376;2023-03-01T16:31:17;7.80;47.40
1103;DHT22;538;42.654;23.376;2023-03-01T16:33:45;7.90;47.50
1103;DHT22;538;42.654;23.376;2023-03-01T16:36:16;7.90;47.80
1103;DHT22;538;42.654;23.376;2023-03-01T16:38:43;7.80;47.90
1103;DHT22;538;42.654;23.376;2023-03-01T16:41:14;7.90;48.80
1103;DHT22;538;42.654;23.376;2023-03-01T16:43:42;7.70;48.00
1103;DHT22;538;42.654;23.376;2023-03-01T16:46:13;7.60;48.10
1103;DHT22;538;42.654;23.376;2023-03-01T16:48:40;7.60;48.60
1103;DHT22;538;42.654;23.376;2023-03-01T16:51:08;7.50;48.70
1103;DHT22;538;42.654;23.376;2023-03-01T16:53:37;7.60;49.40
1103;DHT22;538;42.654;23.376;2023-03-01T16:56:06;7.60;49.70
1103;DHT22;538;42.654;23.376;2023-03-01T16:58:35;7.70;50.30
1103;DHT22;538;42.654;23.376;2023-03-01T17:01:08;7.70;50.90
1103;DHT22;538;42.654;23.376;2023-03-01T17:03:36;7.60;51.10
1103;DHT22;538;42.654;23.376;2023-03-01T17:06:04;7.50;50.70
1103;DHT22;538;42.654;23.376;2023-03-01T17:08:32;7.70;50.60
1103;DHT22;538;42.654;23.376;2023-03-01T17:11:04;7.70;51.10
1103;DHT22;538;42.654;23.376;2023-03-01T17:13:31;7.70;49.50
1103;DHT22;538;42.654;23.376;2023-03-01T17:16:03;7.70;49.50
1103;DHT22;538;42.654;23.376;2023-03-01T17:18:30;7.70;49.50
1103;DHT22;538;42.654;23.376;2023-03-01T17:20:57;7.70;50.00
1103;DHT22;538;42.654;23.376;2023-03-01T17:23:24;7.70;49.00